sensor_id;sensor_type;location;lat;lon;timestamp;temperature;humidity
32097;DHT22;18610;49.916;8.284;2023-07-20T00:02:25;18.70;90.80
32097;DHT22;18610;49.916;8.284;2023-07-20T00:04:52;18.70;90.90
32097;DHT22;18610;49.916;8.284;2023-07-20T00:07:18;18.70;91.10
32097;DHT22;18610;49.916;8.284;2023-07-20T00:09:45;18.60;91.20
32097;DHT22;18610;49.916;8.284;2023-07-20T00:12:13;18.60;91.40
32097;DHT22;18610;49.916;8.284;2023-07-20T00:14:40;18.60;91.60
32097;DHT22;18610;49.916;8.284;2023-07-20T00:17:07;18.50;91.80
32097;DHT22;18610;49.916;8.284;2023-07-20T00:19:33;18.50;91.90
32097;DHT22;18610;49.916;8.284;2023-07-20T00:22:00;18.50;92.20
32097;DHT22;18610;49.916;8.284;2023-07-20T00:24:27;18.40;92.30
32097;DHT22;18610;49.916;8.284;2023-07-20T00:26:53;18.40;92.40
32097;DHT22;18610;49.916;8.284;2023-07-20T00:29:21;18.40;92.70
32097;DHT22;18610;49.916;8.284;2023-07-20T00:31:48;18.30;92.80
32097;DHT22;18610;49.916;8.284;2023-07-20T00:34:15;18.30;93.10
32097;DHT22;18610;49.916;8.284;2023-07-20T00:36:47;18.30;93.30
32097;DHT22;18610;49.916;8.284;2023-07-20T00:39:14;18.30;93.60
32097;DHT22;18610;49.916;8.284;2023-07-20T00:41:41;18.20;93.80
32097;DHT22;18610;49.916;8.284;2023-07-20T00:44:08;18.10;94.00
32097;DHT22;18610;49.916;8.284;2023-07-20T00:46:35;18.00;94.30
32097;DHT22;18610;49.916;8.284;2023-07-20T00:49:02;17.90;94.60
32097;DHT22;18610;49.916;8.284;2023-07-20T00:51:29;17.90;94.90
32097;DHT22;18610;49.916;8.284;2023-07-20T00:53:56;17.80;95.20
32097;DHT22;18610;49.916;8.284;2023-07-20T00:56:23;17.80;95.40
32097;DHT22;18610;49.916;8.284;2023-07-20T01:02:01;17.60;95.80
32097;DHT22;18610;49.916;8.284;2023-07-20T01:04:27;17.60;96.00
32097;DHT22;18610;49.916;8.284;2023-07-20T01:07:00;17.50;96.10
32097;DHT22;18610;49.916;8.284;2023-07-20T01:09:31;17.50;96.30
32097;DHT22;18610;49.916;8.284;2023-07-20T01:12:02;17.50;96.50
32097;DHT22;18610;49.916;8.284;2023-07-20T01:14:31;17.50;96.80
32097;DHT22;18610;49.916;8.284;2023-07-20T01:16:58;17.40;96.80
32097;DHT22;18610;49.916;8.284;2023-07-20T01:19:26;17.40;97.00
32097;DHT22;18610;49.916;8.284;2023-07-20T01:21:57;17.40;97.20
32097;DHT22;18610;49.916;8.284;2023-07-20T01:27:26;17.30;97.50
32097;DHT22;18610;49.916;8.284;2023-07-20T01:30:03;17.30;97.70
32097;DHT22;18610;49.916;8.284;2023-07-20T01:32:36;17.20;98.00
32097;DHT22;18610;49.916;8.284;2023-07-20T01:35:06;17.20;98.10
32097;DHT22;18610;49.916;8.284;2023-07-20T01:37:34;17.20;98.30
32097;DHT22;18610;49.916;8.284;2023-07-20T01:40:01;17.10;98.50
32097;DHT22;18610;49.916;8.284;2023-07-20T01:42:29;17.10;98.70
32097;DHT22;18610;49.916;8.284;2023-07-20T01:44:56;17.00;98.80
32097;DHT22;18610;49.916;8.284;2023-07-20T01:47:22;17.00;99.10
32097;DHT22;18610;49.916;8.284;2023-07-20T01:49:50;17.00;99.30
32097;DHT22;18610;49.916;8.284;2023-07-20T01:52:17;16.90;99.50
32097;DHT22;18610;49.916;8.284;2023-07-20T01:54:44;16.90;99.70
32097;DHT22;18610;49.916;8.284;2023-07-20T01:57:10;16.80;99.90
32097;DHT22;18610;49.916;8.284;2023-07-20T01:59:37;16.80;99.90
32097;DHT22;18610;49.916;8.284;2023-07-20T02:02:04;16.70;99.90
32097;DHT22;18610;49.916;8.284;2023-07-20T02:04:31;16.70;99.90
32097;DHT22;18610;49.916;8.284;2023-07-20T02:06:59;16.70;99.90
32097;DHT22;18610;49.916;8.284;2023-07-20T02:09:25;16.70;99.90
32097;DHT22;18610;49.916;8.284;2023-07-20T02:11:52;16.60;99.90
32097;DHT22;18610;49.916;8.284;2023-07-20T02:14:19;16.60;99.90
32097;DHT22;18610;49.916;8.284;2023-07-20T02:16:47;16.60;99.90
32097;DHT22;18610;49.916;8.284;2023-07-20T02:19:17;16.50;99.90
32097;DHT22;18610;49.916;8.284;2023-07-20T02:21:44;16.50;99.90
32097;DHT22;18610;49.916;8.284;2023-07-20T02:24:13;16.40;99.90
32097;DHT22;18610;49.916;8.284;2023-07-20T02:26:39;16.30;99.90
32097;DHT22;18610;49.916;8.284;2023-07-20T02:29:06;16.30;99.90
32097;DHT22;18610;49.916;8.284;2023-07-20T02:31:33;16.20;99.90
32097;DHT22;18610;49.916;8.284;2023-07-20T02:34:03;16.00;99.90
32097;DHT22;18610;49.916;8.284;2023-07-20T02:36:29;16.00;99.90
32097;DHT22;18610;49.916;8.284;2023-07-20T02:38:58;15.90;99.90
32097;DHT22;18610;49.916;8.284;2023-07-20T02:41:26;15.80;99.90
32097;DHT22;18610;49.916;8.284;2023-07-20T02:43:52;15.80;99.90
32097;DHT22;18610;49.916;8.284;2023-07-20T02:46:19;15.70;99.90
32097;DHT22;18610;49.916;8.284;2023-07-20T02:48:46;15.60;99.90
32097;DHT22;18610;49.916;8.284;2023-07-20T02:51:13;15.60;99.90
32097;DHT22;18610;49.916;8.284;2023-07-20T02:53:39;15.60;99.90
32097;DHT22;18610;49.916;8.284;2023-07-20T02:56:07;15.50;99.90
32097;DHT22;18610;49.916;8.284;2023-07-20T02:58:35;15.50;99.90
32097;DHT22;18610;49.916;8.284;2023-07-20T03:01:02;15.50;99.90
32097;DHT22;18610;49.916;8.284;2023-07-20T03:03:29;15.40;99.90
32097;DHT22;18610;49.916;8.284;2023-07-20T03:05:56;15.40;99.90
32097;DHT22;18610;49.916;8.284;2023-07-20T03:08:23;15.40;99.90
32097;DHT22;18610;49.916;8.284;2023-07-20T03:10:49;15.40;99.90
32097;DHT22;18610;49.916;8.284;2023-07-20T03:13:16;15.40;99.90
32097;DHT22;18610;49.916;8.284;2023-07-20T03:15:44;15.30;99.90
32097;DHT22;18610;49.916;8.284;2023-07-20T03:18:11;15.30;99.90
32097;DHT22;18610;49.916;8.284;2023-07-20T03:20:38;15.30;99.90
32097;DHT22;18610;49.916;8.284;2023-07-20T03:23:04;15.30;99.90
32097;DHT22;18610;49.916;8.284;2023-07-20T03:25:31;15.20;99.90
32097;DHT22;18610;49.916;8.284;2023-07-20T03:27:59;15.10;99.90
32097;DHT22;18610;49.916;8.284;2023-07-20T03:30:25;15.10;99.90
32097;DHT22;18610;49.916;8.284;2023-07-20T03:32:53;15.00;99.90
32097;DHT22;18610;49.916;8.284;2023-07-20T03:35:20;15.00;99.90
32097;DHT22;18610;49.916;8.284;2023-07-20T03:37:47;15.00;99.90
32097;DHT22;18610;49.916;8.284;2023-07-20T03:40:14;15.00;99.90
32097;DHT22;18610;49.916;8.284;2023-07-20T03:42:41;14.90;99.90
32097;DHT22;18610;49.916;8.284;2023-07-20T03:45:09;14.90;99.90
32097;DHT22;18610;49.916;8.284;2023-07-20T03:47:35;14.90;99.90
32097;DHT22;18610;49.916;8.284;2023-07-20T03:50:04;14.90;99.90
32097;DHT22;18610;49.916;8.284;2023-07-20T03:52:31;14.80;99.90
32097;DHT22;18610;49.916;8.284;2023-07-20T03:54:57;14.80;99.90
32097;DHT22;18610;49.916;8.284;2023-07-20T03:57:24;14.80;99.90
32097;DHT22;18610;49.916;8.284;2023-07-20T03:59:51;14.90;99.90
32097;DHT22;18610;49.916;8.284;2023-07-20T04:02:17;14.90;99.90
32097;DHT22;18610;49.916;8.284;2023-07-20T04:04:44;14.80;99.90
32097;DHT22;18610;49.916;8.284;2023-07-20T04:07:12;14.90;99.90
32097;DHT22;18610;49.916;8.284;2023-07-20T04:09:39;14.90;99.90
32097;DHT22;18610;49.916;8.284;2023-07-20T04:12:06;14.90;99.90
32097;DHT22;18610;49.916;8.284;2023-07-20T04:14:33;14.90;99.90
32097;DHT22;18610;49.916;8.284;2023-07-20T04:17:00;14.90;99.90
32097;DHT22;18610;49.916;8.284;2023-07-20T04:19:26;15.00;99.90
32097;DHT22;18610;49.916;8.284;2023-07-20T04:21:53;15.10;99.90
32097;DHT22;18610;49.916;8.284;2023-07-20T04:24:21;15.10;99.90
32097;DHT22;18610;49.916;8.284;2023-07-20T04:26:48;15.10;99.90
32097;DHT22;18610;49.916;8.284;2023-07-20T04:29:14;15.20;99.90
32097;DHT22;18610;49.916;8.284;2023-07-20T04:31:41;15.20;99.90
32097;DHT22;18610;49.916;8.284;2023-07-20T04:34:07;15.30;99.90
32097;DHT22;18610;49.916;8.284;2023-07-20T04:36:34;15.30;99.90
32097;DHT22;18610;49.916;8.284;2023-07-20T04:39:01;15.40;99.90
32097;DHT22;18610;49.916;8.284;2023-07-20T04:41:30;15.50;99.90
32097;DHT22;18610;49.916;8.284;2023-07-20T04:43:56;15.60;99.90
32097;DHT22;18610;49.916;8.284;2023-07-20T04:46:23;15.70;99.90
32097;DHT22;18610;49.916;8.284;2023-07-20T04:48:50;15.70;99.90
32097;DHT22;18610;49.916;8.284;2023-07-20T04:51:16;15.80;99.90
32097;DHT22;18610;49.916;8.284;2023-07-20T04:53:46;15.90;99.90
32097;DHT22;18610;49.916;8.284;2023-07-20T04:56:13;16.00;99.90
32097;DHT22;18610;49.916;8.284;2023-07-20T04:58:41;16.10;99.90
32097;DHT22;18610;49.916;8.284;2023-07-20T05:01:08;16.20;99.90
32097;DHT22;18610;49.916;8.284;2023-07-20T05:03:34;16.20;99.90
32097;DHT22;18610;49.916;8.284;2023-07-20T05:06:01;16.30;99.90
32097;DHT22;18610;49.916;8.284;2023-07-20T05:08:28;16.40;99.90
32097;DHT22;18610;49.916;8.284;2023-07-20T05:10:54;16.50;99.90
32097;DHT22;18610;49.916;8.284;2023-07-20T05:13:21;16.60;99.90
32097;DHT22;18610;49.916;8.284;2023-07-20T05:15:52;16.70;99.90
32097;DHT22;18610;49.916;8.284;2023-07-20T05:18:19;16.80;99.90
32097;DHT22;18610;49.916;8.284;2023-07-20T05:20:46;17.00;99.90
32097;DHT22;18610;49.916;8.284;2023-07-20T05:23:13;17.00;99.90
32097;DHT22;18610;49.916;8.284;2023-07-20T05:25:40;17.10;99.90
32097;DHT22;18610;49.916;8.284;2023-07-20T05:28:07;17.20;99.90
32097;DHT22;18610;49.916;8.284;2023-07-20T05:30:34;17.30;99.90
32097;DHT22;18610;49.916;8.284;2023-07-20T05:33:02;17.40;99.90
32097;DHT22;18610;49.916;8.284;2023-07-20T05:35:28;17.50;99.90
32097;DHT22;18610;49.916;8.284;2023-07-20T05:37:55;17.60;99.90
32097;DHT22;18610;49.916;8.284;2023-07-20T05:40:22;17.70;99.90
32097;DHT22;18610;49.916;8.284;2023-07-20T05:42:48;17.70;99.90
32097;DHT22;18610;49.916;8.284;2023-07-20T05:45:17;17.80;99.90
32097;DHT22;18610;49.916;8.284;2023-07-20T05:47:44;17.90;99.90
32097;DHT22;18610;49.916;8.284;2023-07-20T05:50:12;18.00;99.90
32097;DHT22;18610;49.916;8.284;2023-07-20T05:52:39;18.00;99.90
32097;DHT22;18610;49.916;8.284;2023-07-20T05:55:07;18.10;99.90
32097;DHT22;18610;49.916;8.284;2023-07-20T05:57:34;18.10;99.90
32097;DHT22;18610;49.916;8.284;2023-07-20T06:00:06;18.20;99.90
32097;DHT22;18610;49.916;8.284;2023-07-20T06:02:34;18.30;99.90
32097;DHT22;18610;49.916;8.284;2023-07-20T06:05:01;18.40;99.90
32097;DHT22;18610;49.916;8.284;2023-07-20T06:07:29;18.50;99.90
32097;DHT22;18610;49.916;8.284;2023-07-20T06:09:56;18.50;99.90
32097;DHT22;18610;49.916;8.284;2023-07-20T06:12:23;18.50;99.90
32097;DHT22;18610;49.916;8.284;2023-07-20T06:14:50;18.60;99.90
32097;DHT22;18610;49.916;8.284;2023-07-20T06:17:17;18.80;99.90
32097;DHT22;18610;49.916;8.284;2023-07-20T06:19:43;18.90;99.90
32097;DHT22;18610;49.916;8.284;2023-07-20T06:22:10;19.00;99.90
32097;DHT22;18610;49.916;8.284;2023-07-20T06:24:38;19.00;99.90
32097;DHT22;18610;49.916;8.284;2023-07-20T06:27:05;18.90;99.90
32097;DHT22;18610;49.916;8.284;2023-07-20T06:29:32;18.90;99.90
32097;DHT22;18610;49.916;8.284;2023-07-20T06:31:58;18.80;99.90
32097;DHT22;18610;49.916;8.284;2023-07-20T06:34:25;18.90;99.90
32097;DHT22;18610;49.916;8.284;2023-07-20T06:36:52;18.90;99.90
32097;DHT22;18610;49.916;8.284;2023-07-20T06:39:18;19.00;99.90
32097;DHT22;18610;49.916;8.284;2023-07-20T06:41:46;19.10;99.90
32097;DHT22;18610;49.916;8.284;2023-07-20T06:44:13;19.30;99.90
32097;DHT22;18610;49.916;8.284;2023-07-20T06:46:40;19.50;99.90
32097;DHT22;18610;49.916;8.284;2023-07-20T06:49:07;19.60;99.90
32097;DHT22;18610;49.916;8.284;2023-07-20T06:51:34;19.60;99.90
32097;DHT22;18610;49.916;8.284;2023-07-20T06:54:01;19.60;99.90
32097;DHT22;18610;49.916;8.284;2023-07-20T06:56:30;19.60;99.90
32097;DHT22;18610;49.916;8.284;2023-07-20T06:58:58;19.60;99.90
32097;DHT22;18610;49.916;8.284;2023-07-20T07:01:24;19.70;99.90
32097;DHT22;18610;49.916;8.284;2023-07-20T07:03:51;19.70;99.90
32097;DHT22;18610;49.916;8.284;2023-07-20T07:06:17;19.80;99.90
32097;DHT22;18610;49.916;8.284;2023-07-20T07:08:44;19.90;99.90
32097;DHT22;18610;49.916;8.284;2023-07-20T07:11:11;19.90;99.90
32097;DHT22;18610;49.916;8.284;2023-07-20T07:13:38;20.20;99.70
32097;DHT22;18610;49.916;8.284;2023-07-20T07:16:06;20.30;99.50
32097;DHT22;18610;49.916;8.284;2023-07-20T07:18:33;20.50;99.10
32097;DHT22;18610;49.916;8.284;2023-07-20T07:21:00;20.60;98.80
32097;DHT22;18610;49.916;8.284;2023-07-20T07:23:26;20.70;98.80
32097;DHT22;18610;49.916;8.284;2023-07-20T07:25:53;21.00;98.50
32097;DHT22;18610;49.916;8.284;2023-07-20T07:28:20;21.20;98.20
32097;DHT22;18610;49.916;8.284;2023-07-20T07:30:46;21.40;97.90
32097;DHT22;18610;49.916;8.284;2023-07-20T07:33:14;21.40;97.40
32097;DHT22;18610;49.916;8.284;2023-07-20T07:35:41;21.60;96.80
32097;DHT22;18610;49.916;8.284;2023-07-20T07:38:08;21.60;96.10
32097;DHT22;18610;49.916;8.284;2023-07-20T07:40:35;21.70;96.40
32097;DHT22;18610;49.916;8.284;2023-07-20T07:43:01;21.80;96.00
32097;DHT22;18610;49.916;8.284;2023-07-20T07:45:28;22.00;95.50
32097;DHT22;18610;49.916;8.284;2023-07-20T07:47:55;22.20;95.10
32097;DHT22;18610;49.916;8.284;2023-07-20T07:50:23;22.30;95.10
32097;DHT22;18610;49.916;8.284;2023-07-20T07:52:50;22.30;94.80
32097;DHT22;18610;49.916;8.284;2023-07-20T07:55:17;22.40;94.70
32097;DHT22;18610;49.916;8.284;2023-07-20T07:57:43;22.30;94.40
32097;DHT22;18610;49.916;8.284;2023-07-20T08:00:11;22.30;94.30
32097;DHT22;18610;49.916;8.284;2023-07-20T08:02:40;22.30;94.30
32097;DHT22;18610;49.916;8.284;2023-07-20T08:05:07;22.40;94.10
32097;DHT22;18610;49.916;8.284;2023-07-20T08:07:35;22.60;93.70
32097;DHT22;18610;49.916;8.284;2023-07-20T08:10:02;22.70;93.50
32097;DHT22;18610;49.916;8.284;2023-07-20T08:12:29;22.80;93.10
32097;DHT22;18610;49.916;8.284;2023-07-20T08:14:56;22.90;92.90
32097;DHT22;18610;49.916;8.284;2023-07-20T08:17:23;23.20;92.50
32097;DHT22;18610;49.916;8.284;2023-07-20T08:19:49;23.30;91.50
32097;DHT22;18610;49.916;8.284;2023-07-20T08:22:16;23.50;90.90
32097;DHT22;18610;49.916;8.284;2023-07-20T08:24:44;23.60;90.60
32097;DHT22;18610;49.916;8.284;2023-07-20T08:27:11;23.60;90.30
32097;DHT22;18610;49.916;8.284;2023-07-20T08:29:38;23.50;89.50
32097;DHT22;18610;49.916;8.284;2023-07-20T08:32:06;23.30;88.60
32097;DHT22;18610;49.916;8.284;2023-07-20T08:34:33;23.20;89.00
32097;DHT22;18610;49.916;8.284;2023-07-20T08:36:59;23.20;89.00
32097;DHT22;18610;49.916;8.284;2023-07-20T08:39:26;23.20;89.60
32097;DHT22;18610;49.916;8.284;2023-07-20T08:41:55;23.10;87.40
32097;DHT22;18610;49.916;8.284;2023-07-20T08:44:22;23.00;88.10
32097;DHT22;18610;49.916;8.284;2023-07-20T08:46:49;23.20;88.50
32097;DHT22;18610;49.916;8.284;2023-07-20T08:49:17;23.60;88.30
32097;DHT22;18610;49.916;8.284;2023-07-20T08:51:46;24.00;86.10
32097;DHT22;18610;49.916;8.284;2023-07-20T08:54:15;24.20;82.90
32097;DHT22;18610;49.916;8.284;2023-07-20T08:56:42;24.00;81.40
32097;DHT22;18610;49.916;8.284;2023-07-20T08:59:13;23.90;82.20
32097;DHT22;18610;49.916;8.284;2023-07-20T09:01:44;23.90;82.90
32097;DHT22;18610;49.916;8.284;2023-07-20T09:04:10;24.00;83.40
32097;DHT22;18610;49.916;8.284;2023-07-20T09:06:38;24.00;83.50
32097;DHT22;18610;49.916;8.284;2023-07-20T09:09:04;24.00;83.50
32097;DHT22;18610;49.916;8.284;2023-07-20T09:11:31;24.10;83.80
32097;DHT22;18610;49.916;8.284;2023-07-20T09:14:05;24.20;83.40
32097;DHT22;18610;49.916;8.284;2023-07-20T09:16:47;24.40;82.40
32097;DHT22;18610;49.916;8.284;2023-07-20T09:19:15;24.50;81.00
32097;DHT22;18610;49.916;8.284;2023-07-20T09:21:44;24.70;80.40
32097;DHT22;18610;49.916;8.284;2023-07-20T09:24:11;24.70;78.10
32097;DHT22;18610;49.916;8.284;2023-07-20T09:26:41;25.00;77.50
32097;DHT22;18610;49.916;8.284;2023-07-20T09:29:09;25.10;76.90
32097;DHT22;18610;49.916;8.284;2023-07-20T09:31:37;25.10;76.90
32097;DHT22;18610;49.916;8.284;2023-07-20T09:34:05;25.20;76.60
32097;DHT22;18610;49.916;8.284;2023-07-20T09:36:33;25.00;75.10
32097;DHT22;18610;49.916;8.284;2023-07-20T09:39:00;24.90;74.90
32097;DHT22;18610;49.916;8.284;2023-07-20T09:41:27;24.70;75.60
32097;DHT22;18610;49.916;8.284;2023-07-20T09:43:54;24.50;75.90
32097;DHT22;18610;49.916;8.284;2023-07-20T09:46:22;24.40;76.60
32097;DHT22;18610;49.916;8.284;2023-07-20T09:48:53;24.20;77.00
32097;DHT22;18610;49.916;8.284;2023-07-20T09:51:21;24.10;77.20
32097;DHT22;18610;49.916;8.284;2023-07-20T09:53:49;23.80;77.90
32097;DHT22;18610;49.916;8.284;2023-07-20T09:56:18;23.70;78.20
32097;DHT22;18610;49.916;8.284;2023-07-20T09:58:48;23.70;78.80
32097;DHT22;18610;49.916;8.284;2023-07-20T10:01:19;23.70;79.30
32097;DHT22;18610;49.916;8.284;2023-07-20T10:03:47;23.60;79.70
32097;DHT22;18610;49.916;8.284;2023-07-20T10:06:23;23.60;79.50
32097;DHT22;18610;49.916;8.284;2023-07-20T10:08:52;23.50;79.60
32097;DHT22;18610;49.916;8.284;2023-07-20T10:11:22;23.60;79.50
32097;DHT22;18610;49.916;8.284;2023-07-20T10:13:51;23.50;80.30
32097;DHT22;18610;49.916;8.284;2023-07-20T10:16:22;23.50;80.40
32097;DHT22;18610;49.916;8.284;2023-07-20T10:18:58;23.40;80.50
32097;DHT22;18610;49.916;8.284;2023-07-20T10:21:27;23.40;81.50
32097;DHT22;18610;49.916;8.284;2023-07-20T10:23:56;23.30;81.50
32097;DHT22;18610;49.916;8.284;2023-07-20T10:26:23;23.20;81.60
32097;DHT22;18610;49.916;8.284;2023-07-20T10:28:51;23.20;81.50
32097;DHT22;18610;49.916;8.284;2023-07-20T10:31:18;23.20;81.60
32097;DHT22;18610;49.916;8.284;2023-07-20T10:33:45;23.50;81.40
32097;DHT22;18610;49.916;8.284;2023-07-20T10:36:12;24.00;81.40
32097;DHT22;18610;49.916;8.284;2023-07-20T10:38:41;24.50;79.70
32097;DHT22;18610;49.916;8.284;2023-07-20T10:41:18;24.80;78.20
32097;DHT22;18610;49.916;8.284;2023-07-20T10:43:46;25.10;75.20
32097;DHT22;18610;49.916;8.284;2023-07-20T10:46:13;25.10;75.60
32097;DHT22;18610;49.916;8.284;2023-07-20T10:48:59;25.10;74.50
32097;DHT22;18610;49.916;8.284;2023-07-20T10:51:26;25.40;72.90
32097;DHT22;18610;49.916;8.284;2023-07-20T10:53:55;25.60;72.50
32097;DHT22;18610;49.916;8.284;2023-07-20T10:56:27;25.90;73.10
32097;DHT22;18610;49.916;8.284;2023-07-20T10:58:58;26.30;70.60
32097;DHT22;18610;49.916;8.284;2023-07-20T11:01:28;26.30;69.60
32097;DHT22;18610;49.916;8.284;2023-07-20T11:03:57;26.20;69.50
32097;DHT22;18610;49.916;8.284;2023-07-20T11:06:32;26.00;70.10
32097;DHT22;18610;49.916;8.284;2023-07-20T11:09:07;25.90;69.40
32097;DHT22;18610;49.916;8.284;2023-07-20T11:11:36;25.70;70.20
32097;DHT22;18610;49.916;8.284;2023-07-20T11:14:04;25.50;70.10
32097;DHT22;18610;49.916;8.284;2023-07-20T11:16:37;25.50;70.20
32097;DHT22;18610;49.916;8.284;2023-07-20T11:19:04;25.30;69.20
32097;DHT22;18610;49.916;8.284;2023-07-20T11:21:36;25.30;69.70
32097;DHT22;18610;49.916;8.284;2023-07-20T11:24:05;25.50;69.30
32097;DHT22;18610;49.916;8.284;2023-07-20T11:26:46;25.50;68.80
32097;DHT22;18610;49.916;8.284;2023-07-20T11:29:15;25.70;70.00
32097;DHT22;18610;49.916;8.284;2023-07-20T11:31:43;25.70;67.80
32097;DHT22;18610;49.916;8.284;2023-07-20T11:34:11;25.60;67.90
32097;DHT22;18610;49.916;8.284;2023-07-20T11:36:39;25.60;68.70
32097;DHT22;18610;49.916;8.284;2023-07-20T11:39:08;25.70;69.10
32097;DHT22;18610;49.916;8.284;2023-07-20T11:41:35;25.80;67.20
32097;DHT22;18610;49.916;8.284;2023-07-20T11:44:02;25.80;66.90
32097;DHT22;18610;49.916;8.284;2023-07-20T11:46:29;25.70;66.00
32097;DHT22;18610;49.916;8.284;2023-07-20T11:48:57;25.60;66.50
32097;DHT22;18610;49.916;8.284;2023-07-20T11:51:24;25.70;66.30
32097;DHT22;18610;49.916;8.284;2023-07-20T11:53:51;25.90;66.10
32097;DHT22;18610;49.916;8.284;2023-07-20T11:56:19;26.30;66.00
32097;DHT22;18610;49.916;8.284;2023-07-20T11:58:46;26.90;65.30
32097;DHT22;18610;49.916;8.284;2023-07-20T12:01:13;27.40;62.70
32097;DHT22;18610;49.916;8.284;2023-07-20T12:03:42;27.60;61.50
32097;DHT22;18610;49.916;8.284;2023-07-20T12:06:09;27.60;60.80
32097;DHT22;18610;49.916;8.284;2023-07-20T12:08:38;27.50;60.80
32097;DHT22;18610;49.916;8.284;2023-07-20T12:11:05;27.50;61.00
32097;DHT22;18610;49.916;8.284;2023-07-20T12:13:42;27.30;60.20
32097;DHT22;18610;49.916;8.284;2023-07-20T12:16:10;27.30;60.70
32097;DHT22;18610;49.916;8.284;2023-07-20T12:18:38;27.20;61.80
32097;DHT22;18610;49.916;8.284;2023-07-20T12:21:06;27.10;62.50
32097;DHT22;18610;49.916;8.284;2023-07-20T12:23:37;27.10;61.80
32097;DHT22;18610;49.916;8.284;2023-07-20T12:26:06;27.10;60.70
32097;DHT22;18610;49.916;8.284;2023-07-20T12:28:39;27.20;59.90
32097;DHT22;18610;49.916;8.284;2023-07-20T12:31:07;27.10;58.30
32097;DHT22;18610;49.916;8.284;2023-07-20T12:33:35;26.90;58.90
32097;DHT22;18610;49.916;8.284;2023-07-20T12:36:01;26.90;59.80
32097;DHT22;18610;49.916;8.284;2023-07-20T12:38:28;27.00;60.10
32097;DHT22;18610;49.916;8.284;2023-07-20T12:40:56;27.20;59.20
32097;DHT22;18610;49.916;8.284;2023-07-20T12:43:24;27.30;58.70
32097;DHT22;18610;49.916;8.284;2023-07-20T12:45:52;27.30;57.10
32097;DHT22;18610;49.916;8.284;2023-07-20T12:48:19;27.00;57.80
32097;DHT22;18610;49.916;8.284;2023-07-20T12:50:45;26.80;57.90
32097;DHT22;18610;49.916;8.284;2023-07-20T12:53:12;26.70;58.30
32097;DHT22;18610;49.916;8.284;2023-07-20T12:55:39;26.60;58.50
32097;DHT22;18610;49.916;8.284;2023-07-20T12:58:06;26.60;58.20
32097;DHT22;18610;49.916;8.284;2023-07-20T13:00:33;26.80;58.20
32097;DHT22;18610;49.916;8.284;2023-07-20T13:03:01;27.00;57.80
32097;DHT22;18610;49.916;8.284;2023-07-20T13:05:30;27.10;57.60
32097;DHT22;18610;49.916;8.284;2023-07-20T13:07:58;27.20;56.80
32097;DHT22;18610;49.916;8.284;2023-07-20T13:10:24;27.10;56.00
32097;DHT22;18610;49.916;8.284;2023-07-20T13:12:51;26.90;54.80
32097;DHT22;18610;49.916;8.284;2023-07-20T13:15:18;26.70;54.90
32097;DHT22;18610;49.916;8.284;2023-07-20T13:17:45;26.60;55.60
32097;DHT22;18610;49.916;8.284;2023-07-20T13:20:14;26.50;55.90
32097;DHT22;18610;49.916;8.284;2023-07-20T13:22:41;26.60;56.00
32097;DHT22;18610;49.916;8.284;2023-07-20T13:25:08;26.60;56.30
32097;DHT22;18610;49.916;8.284;2023-07-20T13:27:36;26.70;56.60
32097;DHT22;18610;49.916;8.284;2023-07-20T13:30:04;26.70;56.30
32097;DHT22;18610;49.916;8.284;2023-07-20T13:32:32;26.60;56.30
32097;DHT22;18610;49.916;8.284;2023-07-20T13:34:59;26.80;55.70
32097;DHT22;18610;49.916;8.284;2023-07-20T13:37:27;27.10;56.20
32097;DHT22;18610;49.916;8.284;2023-07-20T13:39:53;27.50;56.50
32097;DHT22;18610;49.916;8.284;2023-07-20T13:42:20;27.70;55.00
32097;DHT22;18610;49.916;8.284;2023-07-20T13:44:47;27.90;53.90
32097;DHT22;18610;49.916;8.284;2023-07-20T13:47:14;28.10;53.40
32097;DHT22;18610;49.916;8.284;2023-07-20T13:49:41;28.00;53.20
32097;DHT22;18610;49.916;8.284;2023-07-20T13:52:07;28.00;52.90
32097;DHT22;18610;49.916;8.284;2023-07-20T13:54:36;27.70;52.30
32097;DHT22;18610;49.916;8.284;2023-07-20T13:57:03;27.60;52.30
32097;DHT22;18610;49.916;8.284;2023-07-20T13:59:30;27.50;52.70
32097;DHT22;18610;49.916;8.284;2023-07-20T14:01:57;27.50;52.20
32097;DHT22;18610;49.916;8.284;2023-07-20T14:04:23;27.50;52.20
32097;DHT22;18610;49.916;8.284;2023-07-20T14:06:51;27.60;52.70
32097;DHT22;18610;49.916;8.284;2023-07-20T14:09:18;27.70;52.60
32097;DHT22;18610;49.916;8.284;2023-07-20T14:11:46;27.60;50.90
32097;DHT22;18610;49.916;8.284;2023-07-20T14:14:13;27.40;51.20
32097;DHT22;18610;49.916;8.284;2023-07-20T14:16:39;27.20;51.90
32097;DHT22;18610;49.916;8.284;2023-07-20T14:19:06;27.20;52.00
32097;DHT22;18610;49.916;8.284;2023-07-20T14:21:33;27.20;51.70
32097;DHT22;18610;49.916;8.284;2023-07-20T14:24:00;27.10;51.20
32097;DHT22;18610;49.916;8.284;2023-07-20T14:26:27;27.00;51.90
32097;DHT22;18610;49.916;8.284;2023-07-20T14:28:55;27.20;51.80
32097;DHT22;18610;49.916;8.284;2023-07-20T14:31:22;27.50;51.60
32097;DHT22;18610;49.916;8.284;2023-07-20T14:33:48;27.60;52.80
32097;DHT22;18610;49.916;8.284;2023-07-20T14:36:15;27.60;53.10
32097;DHT22;18610;49.916;8.284;2023-07-20T14:38:42;27.50;53.10
32097;DHT22;18610;49.916;8.284;2023-07-20T14:41:09;27.30;53.60
32097;DHT22;18610;49.916;8.284;2023-07-20T14:43:36;27.20;54.30
32097;DHT22;18610;49.916;8.284;2023-07-20T14:46:05;27.10;54.50
32097;DHT22;18610;49.916;8.284;2023-07-20T14:48:32;27.00;54.90
32097;DHT22;18610;49.916;8.284;2023-07-20T14:50:58;26.90;54.90
32097;DHT22;18610;49.916;8.284;2023-07-20T14:53:25;26.70;54.70
32097;DHT22;18610;49.916;8.284;2023-07-20T14:55:58;26.50;55.00
32097;DHT22;18610;49.916;8.284;2023-07-20T14:58:25;26.40;55.10
32097;DHT22;18610;49.916;8.284;2023-07-20T15:00:51;26.30;55.30
32097;DHT22;18610;49.916;8.284;2023-07-20T15:03:19;26.30;56.20
32097;DHT22;18610;49.916;8.284;2023-07-20T15:05:46;26.20;55.90
32097;DHT22;18610;49.916;8.284;2023-07-20T15:08:13;26.10;56.30
32097;DHT22;18610;49.916;8.284;2023-07-20T15:10:39;26.10;56.50
32097;DHT22;18610;49.916;8.284;2023-07-20T15:13:06;26.30;56.80
32097;DHT22;18610;49.916;8.284;2023-07-20T15:15:33;26.50;56.80
32097;DHT22;18610;49.916;8.284;2023-07-20T15:17:59;26.80;56.80
32097;DHT22;18610;49.916;8.284;2023-07-20T15:20:27;27.20;56.10
32097;DHT22;18610;49.916;8.284;2023-07-20T15:22:57;27.50;55.20
32097;DHT22;18610;49.916;8.284;2023-07-20T15:25:23;27.70;54.60
32097;DHT22;18610;49.916;8.284;2023-07-20T15:27:50;27.90;53.90
32097;DHT22;18610;49.916;8.284;2023-07-20T15:30:17;28.00;54.70
32097;DHT22;18610;49.916;8.284;2023-07-20T15:32:44;28.10;54.00
32097;DHT22;18610;49.916;8.284;2023-07-20T15:35:10;28.10;52.80
32097;DHT22;18610;49.916;8.284;2023-07-20T15:37:38;28.20;52.60
32097;DHT22;18610;49.916;8.284;2023-07-20T15:40:06;28.20;52.60